Time;durP1;ratioP1;P1;durP2;ratioP2;P2;SDS_P1;SDS_P2;PMS_P1;PMS_P2;Temp;Humidity;BMP_temperature;BMP_pressure;BME280_temperature;BME280_humidity;BME280_pressure;Samples;Min_cycle;Max_cycle;Signal;HPM_P1;HPM_P2
2022/05/27 00:01:29;;;;;;;;;;;17.00;98.00;;;;;;4304181;33;43294;-76
2022/05/27 00:04:00;;;;;;;;;;;17.00;98.00;;;;;;4316839;33;42815;-76
2022/05/27 00:06:34;;;;;;;;;;;17.00;98.00;;;;;;4317397;33;43718;-77
2022/05/27 00:09:04;;;;;;;;;;;17.00;98.00;;;;;;4317286;33;43469;-76
2022/05/27 00:11:42;;;;;;;;;;;17.00;98.00;;;;;;4316706;33;42478;-76
2022/05/27 00:14:21;;;;;;;;;;;17.00;98.00;;;;;;4303935;33;42575;-76
2022/05/27 00:16:53;;;;;;;;;;;16.90;98.00;;;;;;4317151;33;43084;-76
2022/05/27 00:19:35;;;;;;;;;;;17.00;98.00;;;;;;4304356;33;42392;-76
2022/05/27 00:22:05;;;;;;;;;;;16.90;97.90;;;;;;4303455;33;43477;-76
2022/05/27 00:24:43;;;;;;;;;;;17.00;98.10;;;;;;4316720;33;43518;-76
2022/05/27 00:27:15;;;;;;;;;;;16.90;98.00;;;;;;4316803;33;42537;-76
2022/05/27 00:29:45;;;;;;;;;;;16.90;98.00;;;;;;4316906;33;43649;-76
2022/05/27 00:32:33;;;;;;;;;;;16.90;97.90;;;;;;4305700;33;43703;-76
2022/05/27 00:35:04;;;;;;;;;;;16.90;98.10;;;;;;4316985;33;42143;-76
2022/05/27 00:37:37;;;;;;;;;;;16.90;98.00;;;;;;4316722;33;42188;-76
2022/05/27 00:40:10;;;;;;;;;;;16.90;98.00;;;;;;4316824;33;42458;-76
2022/05/27 00:42:42;;;;;;;;;;;16.90;98.10;;;;;;4316691;33;43006;-75
2022/05/27 00:45:17;;;;;;;;;;;16.90;98.00;;;;;;4316339;33;42739;-76
2022/05/27 00:47:45;;;;;;;;;;;16.90;98.00;;;;;;4316869;33;43742;-76
2022/05/27 00:50:19;;;;;;;;;;;16.90;97.90;;;;;;4316305;33;43969;-76
2022/05/27 00:52:48;;;;;;;;;;;16.80;97.90;;;;;;4303576;33;44828;-76
2022/05/27 00:55:20;;;;;;;;;;;16.80;98.00;;;;;;4316931;33;44244;-77
2022/05/27 00:57:55;;;;;;;;;;;16.80;98.00;;;;;;4303085;33;43470;-75
2022/05/27 01:00:33;;;;;;;;;;;16.80;98.00;;;;;;4303467;33;43478;-76
2022/05/27 01:03:08;;;;;;;;;;;16.80;98.00;;;;;;4302694;33;44701;-75
2022/05/27 01:05:40;;;;;;;;;;;16.80;98.10;;;;;;4303445;33;43099;-76
2022/05/27 01:08:20;;;;;;;;;;;16.80;98.20;;;;;;4304116;33;20107;-76
2022/05/27 01:11:06;;;;;;;;;;;16.80;98.10;;;;;;4316099;33;44320;-76
2022/05/27 01:13:51;;;;;;;;;;;16.80;98.10;;;;;;4302778;33;43478;-76
2022/05/27 01:16:38;;;;;;;;;;;16.80;98.10;;;;;;4303628;33;43741;-76
2022/05/27 01:22:25;;;;;;;;;;;16.80;98.00;;;;;;4316219;33;43015;-75
2022/05/27 01:25:03;;;;;;;;;;;16.70;98.00;;;;;;4303129;33;43053;-75
2022/05/27 01:28:00;;;;;;;;;;;16.70;98.10;;;;;;4316365;33;43640;-75
2022/05/27 01:30:45;;;;;;;;;;;16.70;98.10;;;;;;4315691;33;43692;-74
2022/05/27 01:33:22;;;;;;;;;;;16.70;98.00;;;;;;4303398;33;43691;-75
2022/05/27 01:35:58;;;;;;;;;;;16.70;98.00;;;;;;4302593;33;44362;-75
2022/05/27 01:38:30;;;;;;;;;;;16.70;98.10;;;;;;4316163;33;43701;-76
2022/05/27 01:41:06;;;;;;;;;;;16.70;98.10;;;;;;4303039;33;43729;-76
2022/05/27 01:43:36;;;;;;;;;;;16.70;98.10;;;;;;4315628;33;42426;-75
2022/05/27 01:46:23;;;;;;;;;;;16.70;98.10;;;;;;4315497;33;44291;-76
2022/05/27 01:49:04;;;;;;;;;;;16.70;98.10;;;;;;4315889;33;42853;-75
2022/05/27 01:51:35;;;;;;;;;;;16.60;98.10;;;;;;4315675;33;42055;-75
2022/05/27 01:54:16;;;;;;;;;;;16.60;98.10;;;;;;4315490;33;44250;-75
2022/05/27 01:56:58;;;;;;;;;;;16.60;98.50;;;;;;4315993;33;42984;-75
2022/05/27 01:59:38;;;;;;;;;;;16.60;98.20;;;;;;4302934;33;43529;-76
2022/05/27 02:02:29;;;;;;;;;;;16.60;98.20;;;;;;4315360;33;43637;-76
2022/05/27 02:05:12;;;;;;;;;;;16.60;98.30;;;;;;4315946;33;42912;-75
2022/05/27 02:07:55;;;;;;;;;;;16.60;98.30;;;;;;4302829;33;43225;-75
2022/05/27 02:10:30;;;;;;;;;;;16.60;98.30;;;;;;4302705;33;42569;-75
2022/05/27 02:13:03;;;;;;;;;;;16.60;98.40;;;;;;4315715;33;42858;-76
2022/05/27 02:15:42;;;;;;;;;;;16.50;98.30;;;;;;4315388;33;42509;-74
2022/05/27 02:18:27;;;;;;;;;;;16.50;98.40;;;;;;4302453;33;42965;-75
2022/05/27 02:21:00;;;;;;;;;;;16.50;98.40;;;;;;4315761;33;44625;-75
2022/05/27 02:23:39;;;;;;;;;;;16.50;98.40;;;;;;4317692;33;43017;-75
2022/05/27 02:26:15;;;;;;;;;;;16.50;98.50;;;;;;4318636;33;44469;-75
2022/05/27 02:28:54;;;;;;;;;;;16.50;98.50;;;;;;4318433;33;42132;-75
2022/05/27 02:31:28;;;;;;;;;;;16.50;98.50;;;;;;4305182;33;44203;-75
2022/05/27 02:37:07;;;;;;;;;;;16.50;98.60;;;;;;4318211;33;42557;-75
2022/05/27 02:39:43;;;;;;;;;;;16.50;98.60;;;;;;4318693;33;20411;-74
2022/05/27 02:42:24;;;;;;;;;;;16.50;98.70;;;;;;4305293;33;42467;-75
2022/05/27 02:45:17;;;;;;;;;;;16.50;98.70;;;;;;4305305;33;44155;-75
2022/05/27 02:47:47;;;;;;;;;;;16.50;98.70;;;;;;4318235;33;43817;-76
2022/05/27 02:50:36;;;;;;;;;;;16.50;98.70;;;;;;4318136;33;43118;-75
2022/05/27 02:53:16;;;;;;;;;;;16.50;98.90;;;;;;4304860;33;43906;-75
2022/05/27 02:55:57;;;;;;;;;;;16.50;98.90;;;;;;4318336;33;44235;-75
2022/05/27 02:58:27;;;;;;;;;;;16.50;99.00;;;;;;4318249;33;43650;-75
2022/05/27 03:00:59;;;;;;;;;;;16.50;99.00;;;;;;4317788;33;42934;-75
2022/05/27 03:03:35;;;;;;;;;;;16.50;99.00;;;;;;4304666;33;43624;-76
2022/05/27 03:06:28;;;;;;;;;;;16.50;99.20;;;;;;4317689;33;42887;-75
2022/05/27 03:09:27;;;;;;;;;;;16.40;99.20;;;;;;4295510;33;42460;-75
2022/05/27 03:12:13;;;;;;;;;;;16.40;99.40;;;;;;4318564;33;20399;-75
2022/05/27 03:14:55;;;;;;;;;;;16.40;99.50;;;;;;4317897;33;43981;-75
2022/05/27 03:17:47;;;;;;;;;;;16.40;99.70;;;;;;4304372;33;43277;-75
2022/05/27 03:20:29;;;;;;;;;;;16.40;99.80;;;;;;4304568;33;42467;-76
2022/05/27 03:23:17;;;;;;;;;;;16.40;99.90;;;;;;4317957;33;43046;-75
2022/05/27 03:25:58;;;;;;;;;;;16.40;99.90;;;;;;4317637;33;44254;-76
2022/05/27 03:28:49;;;;;;;;;;;16.40;99.90;;;;;;4304244;33;42839;-75
2022/05/27 03:31:42;;;;;;;;;;;16.40;99.90;;;;;;4317626;33;43915;-75
2022/05/27 03:37:56;;;;;;;;;;;16.40;99.90;;;;;;4317011;33;20048;-75
2022/05/27 03:40:41;;;;;;;;;;;;;;;;;;;;;
2022/05/27 03:43:43;;;;;;;;;;;16.40;99.90;;;;;;4318384;33;20435;-75
2022/05/27 03:46:35;;;;;;;;;;;16.40;99.90;;;;;;4303884;33;44173;-76
2022/05/27 03:49:29;;;;;;;;;;;16.30;99.90;;;;;;4303453;33;44785;-75
2022/05/27 03:52:24;;;;;;;;;;;16.30;99.90;;;;;;4315532;33;43078;-76
2022/05/27 03:55:44;;;;;;;;;;;16.30;99.90;;;;;;4306129;33;43108;-75
2022/05/27 03:58:22;;;;;;;;;;;16.30;99.90;;;;;;4315245;33;44289;-75
2022/05/27 04:01:04;;;;;;;;;;;16.30;99.90;;;;;;4317373;33;43404;-76
2022/05/27 04:03:42;;;;;;;;;;;16.30;99.90;;;;;;4288699;33;20163;-76
2022/05/27 04:06:27;;;;;;;;;;;16.30;99.90;;;;;;4287331;33;37988;-75
2022/05/27 04:09:10;;;;;;;;;;;16.20;99.90;;;;;;4298966;33;20035;-76
2022/05/27 04:11:58;;;;;;;;;;;16.30;99.90;;;;;;4288243;33;43456;-75
2022/05/27 04:14:31;;;;;;;;;;;16.20;99.90;;;;;;4289178;33;20389;-76
2022/05/27 04:17:30;;;;;;;;;;;16.30;99.90;;;;;;4288135;33;42451;-76
2022/05/27 04:20:07;;;;;;;;;;;16.20;99.90;;;;;;4286916;33;45014;-75
2022/05/27 04:22:42;;;;;;;;;;;16.30;99.90;;;;;;4288250;33;43698;-76
2022/05/27 04:25:28;;;;;;;;;;;16.20;99.90;;;;;;4298113;33;42544;-75
2022/05/27 04:28:18;;;;;;;;;;;16.20;99.90;;;;;;4288763;33;20025;-75
2022/05/27 04:31:07;;;;;;;;;;;16.20;99.90;;;;;;4288656;33;20011;-75
2022/05/27 04:33:55;;;;;;;;;;;16.20;99.90;;;;;;4287934;33;43244;-75
2022/05/27 04:36:22;;;;;;;;;;;16.20;99.90;;;;;;4289194;33;20400;-75
2022/05/27 04:39:16;;;;;;;;;;;16.20;99.90;;;;;;4287185;33;44204;-75
2022/05/27 04:41:56;;;;;;;;;;;16.20;99.90;;;;;;4286691;33;43486;-76
2022/05/27 04:44:33;;;;;;;;;;;16.20;99.90;;;;;;4286460;33;43473;-76
2022/05/27 04:47:12;;;;;;;;;;;16.20;99.90;;;;;;4287181;33;22763;-76
2022/05/27 04:49:58;;;;;;;;;;;16.20;99.90;;;;;;4286485;33;42068;-75
2022/05/27 04:52:46;;;;;;;;;;;16.20;99.90;;;;;;4276550;33;42856;-76
2022/05/27 04:55:20;;;;;;;;;;;16.10;99.90;;;;;;4286105;33;44196;-75
2022/05/27 04:57:59;;;;;;;;;;;16.10;99.90;;;;;;4288475;33;20025;-75
2022/05/27 05:00:34;;;;;;;;;;;16.20;99.90;;;;;;4286531;33;44282;-75
2022/05/27 05:03:07;;;;;;;;;;;16.10;99.90;;;;;;4309851;33;44769;-76
2022/05/27 05:05:37;;;;;;;;;;;16.10;99.90;;;;;;4316387;33;42145;-75
2022/05/27 05:08:28;;;;;;;;;;;16.10;99.90;;;;;;4316387;33;44607;-76
2022/05/27 05:10:56;;;;;;;;;;;16.10;99.90;;;;;;4316347;33;44122;-75
2022/05/27 05:13:23;;;;;;;;;;;16.10;99.90;;;;;;4316535;33;45219;-76
2022/05/27 05:15:58;;;;;;;;;;;16.10;99.90;;;;;;4316261;33;44934;-76
2022/05/27 05:18:36;;;;;;;;;;;16.10;99.90;;;;;;4316668;33;20004;-75
2022/05/27 05:21:15;;;;;;;;;;;16.10;99.90;;;;;;4302653;33;43625;-76
2022/05/27 05:23:48;;;;;;;;;;;16.10;99.90;;;;;;4316112;33;42878;-75
2022/05/27 05:26:23;;;;;;;;;;;16.10;99.90;;;;;;4303245;33;42520;-75
2022/05/27 05:28:59;;;;;;;;;;;16.10;99.90;;;;;;4316167;33;42613;-75
2022/05/27 05:31:27;;;;;;;;;;;16.10;99.90;;;;;;4316028;33;43757;-75
2022/05/27 05:34:02;;;;;;;;;;;16.10;99.90;;;;;;4316125;33;43151;-75
2022/05/27 05:36:30;;;;;;;;;;;16.10;99.90;;;;;;4303308;33;42636;-75
2022/05/27 05:39:12;;;;;;;;;;;16.00;99.90;;;;;;4315976;33;42154;-75
2022/05/27 05:41:54;;;;;;;;;;;16.00;99.90;;;;;;4302943;33;44942;-75
2022/05/27 05:44:27;;;;;;;;;;;16.00;99.90;;;;;;4316058;33;42954;-75
2022/05/27 05:47:03;;;;;;;;;;;16.00;99.90;;;;;;4303006;33;44196;-75
2022/05/27 05:49:36;;;;;;;;;;;16.00;99.90;;;;;;4316845;33;20021;-75
2022/05/27 05:52:18;;;;;;;;;;;16.00;99.90;;;;;;4303184;33;43793;-75
2022/05/27 05:54:53;;;;;;;;;;;16.00;99.90;;;;;;4315823;33;44107;-75
2022/05/27 05:57:29;;;;;;;;;;;16.00;99.90;;;;;;4317349;33;43494;-75
2022/05/27 06:00:08;;;;;;;;;;;16.00;99.90;;;;;;4321064;33;43749;-76
2022/05/27 06:02:38;;;;;;;;;;;16.00;99.90;;;;;;4307118;33;42835;-76
2022/05/27 06:05:13;;;;;;;;;;;16.00;99.90;;;;;;4320430;33;42938;-75
2022/05/27 06:07:46;;;;;;;;;;;16.00;99.90;;;;;;4307622;33;43718;-74
2022/05/27 06:10:22;;;;;;;;;;;16.00;99.90;;;;;;4320723;33;43074;-75
2022/05/27 06:12:57;;;;;;;;;;;16.00;99.90;;;;;;4320706;33;44254;-75
2022/05/27 06:15:30;;;;;;;;;;;16.00;99.90;;;;;;4307264;33;43749;-75
2022/05/27 06:18:06;;;;;;;;;;;16.00;99.90;;;;;;4320266;33;42720;-75
2022/05/27 06:20:40;;;;;;;;;;;16.00;99.90;;;;;;4321453;33;20370;-74
2022/05/27 06:23:11;;;;;;;;;;;16.00;99.90;;;;;;4320634;33;44918;-75
2022/05/27 06:25:39;;;;;;;;;;;16.00;99.90;;;;;;4320919;33;43161;-74
2022/05/27 06:36:40;;;;;;;;;;;16.00;99.90;;;;;;4320291;33;43712;-74
2022/05/27 06:39:10;;;;;;;;;;;16.00;99.90;;;;;;4320388;33;43653;-74
2022/05/27 06:41:43;;;;;;;;;;;16.00;99.90;;;;;;4320456;33;42914;-74
2022/05/27 06:44:10;;;;;;;;;;;16.00;99.90;;;;;;4306874;33;43844;-74
2022/05/27 06:46:42;;;;;;;;;;;16.00;99.90;;;;;;4320535;33;43880;-74
2022/05/27 06:49:12;;;;;;;;;;;16.00;99.90;;;;;;4320092;33;44191;-74
2022/05/27 06:51:45;;;;;;;;;;;16.00;99.90;;;;;;4307521;33;43019;-74
2022/05/27 06:54:18;;;;;;;;;;;16.00;99.90;;;;;;4320041;33;42909;-74
2022/05/27 06:56:52;;;;;;;;;;;16.00;99.90;;;;;;4306784;33;42982;-74
2022/05/27 06:59:30;;;;;;;;;;;16.00;99.90;;;;;;4307110;33;43033;-75
2022/05/27 07:01:58;;;;;;;;;;;16.00;99.90;;;;;;4320102;33;43194;-74
2022/05/27 07:04:25;;;;;;;;;;;16.00;99.90;;;;;;4320129;33;43877;-74
2022/05/27 07:06:58;;;;;;;;;;;16.00;99.90;;;;;;4306901;33;43499;-75
2022/05/27 07:09:43;;;;;;;;;;;16.00;99.90;;;;;;4318041;33;42871;-74
2022/05/27 07:12:16;;;;;;;;;;;16.00;99.90;;;;;;4318220;33;43857;-75
2022/05/27 07:14:43;;;;;;;;;;;16.00;99.90;;;;;;4305096;33;43701;-75
2022/05/27 07:17:18;;;;;;;;;;;16.00;99.90;;;;;;4304479;33;43494;-74
2022/05/27 07:19:49;;;;;;;;;;;16.00;99.90;;;;;;4317933;33;42888;-75
2022/05/27 07:22:25;;;;;;;;;;;16.00;99.90;;;;;;4306106;33;19998;-75
2022/05/27 07:24:58;;;;;;;;;;;16.00;99.90;;;;;;4317392;33;42906;-74
2022/05/27 07:27:34;;;;;;;;;;;16.00;99.90;;;;;;4317980;33;43469;-74
2022/05/27 07:30:02;;;;;;;;;;;16.00;99.90;;;;;;4317848;33;43886;-75
2022/05/27 07:32:36;;;;;;;;;;;16.00;99.90;;;;;;4317289;33;42526;-74
2022/05/27 07:35:04;;;;;;;;;;;16.00;99.90;;;;;;4317866;33;43707;-75
2022/05/27 07:37:36;;;;;;;;;;;16.00;99.90;;;;;;4304947;33;45223;-74
2022/05/27 07:40:12;;;;;;;;;;;16.00;99.90;;;;;;4304603;33;42584;-76
2022/05/27 07:42:43;;;;;;;;;;;16.00;99.90;;;;;;4317585;33;43740;-74
2022/05/27 07:45:16;;;;;;;;;;;16.10;99.90;;;;;;4317187;33;42938;-74
2022/05/27 07:47:54;;;;;;;;;;;16.00;99.90;;;;;;4317568;33;43692;-74
2022/05/27 07:50:28;;;;;;;;;;;16.00;99.90;;;;;;4317481;33;44691;-74
2022/05/27 07:52:55;;;;;;;;;;;16.00;99.90;;;;;;4304814;33;20002;-74
2022/05/27 07:55:36;;;;;;;;;;;16.00;99.90;;;;;;4316930;33;43850;-74
2022/05/27 07:58:07;;;;;;;;;;;16.00;99.90;;;;;;4317242;33;43728;-75
2022/05/27 08:00:35;;;;;;;;;;;16.00;99.90;;;;;;4317462;33;44244;-74
2022/05/27 08:03:20;;;;;;;;;;;16.00;99.90;;;;;;4304658;33;44180;-75
2022/05/27 08:05:50;;;;;;;;;;;16.10;99.90;;;;;;4317415;33;43029;-74
2022/05/27 08:08:21;;;;;;;;;;;16.10;99.90;;;;;;4316818;33;42969;-74
2022/05/27 08:10:58;;;;;;;;;;;16.00;99.90;;;;;;4316847;33;42857;-74
2022/05/27 08:13:30;;;;;;;;;;;16.00;99.90;;;;;;4304218;33;43617;-74
2022/05/27 08:16:03;;;;;;;;;;;16.10;99.90;;;;;;4317221;33;42519;-74
2022/05/27 08:18:38;;;;;;;;;;;16.10;99.90;;;;;;4304142;33;42124;-74
2022/05/27 08:21:12;;;;;;;;;;;16.10;99.90;;;;;;4303466;33;42857;-74
2022/05/27 08:23:44;;;;;;;;;;;16.10;99.90;;;;;;4317766;33;20415;-74
2022/05/27 08:26:17;;;;;;;;;;;16.10;99.90;;;;;;4303940;33;43050;-74
2022/05/27 08:28:51;;;;;;;;;;;16.10;99.90;;;;;;4317000;33;42110;-75
2022/05/27 08:31:24;;;;;;;;;;;16.10;99.90;;;;;;4317336;33;43746;-75
2022/05/27 08:39:39;;;;;;;;;;;16.10;99.90;;;;;;4316924;33;44203;-76
2022/05/27 08:42:24;;;;;;;;;;;16.10;99.90;;;;;;4303749;33;43617;-75
2022/05/27 08:44:51;;;;;;;;;;;16.20;99.90;;;;;;4316309;33;44196;-75
2022/05/27 08:47:42;;;;;;;;;;;16.20;99.90;;;;;;4303197;33;43351;-76
2022/05/27 08:50:12;;;;;;;;;;;16.10;99.90;;;;;;4316444;33;42085;-76
2022/05/27 08:53:00;;;;;;;;;;;16.20;99.90;;;;;;4316302;33;43739;-76
2022/05/27 09:01:41;;;;;;;;;;;16.20;99.90;;;;;;4256739;33;43763;-76
2022/05/27 09:04:23;;;;;;;;;;;16.20;99.90;;;;;;4300888;33;43084;-76
2022/05/27 09:07:06;;;;;;;;;;;16.20;99.90;;;;;;4316107;33;42926;-76
2022/05/27 09:09:41;;;;;;;;;;;16.20;99.90;;;;;;4316525;33;43070;-76
2022/05/27 09:12:32;;;;;;;;;;;16.20;99.90;;;;;;4316469;33;43715;-76
2022/05/27 09:15:17;;;;;;;;;;;16.20;99.90;;;;;;4316577;33;43179;-76
2022/05/27 09:17:48;;;;;;;;;;;16.30;99.90;;;;;;4303312;33;44192;-76
2022/05/27 09:20:36;;;;;;;;;;;16.30;99.90;;;;;;4315880;33;42498;-76
2022/05/27 09:23:18;;;;;;;;;;;16.30;99.90;;;;;;4316304;33;43062;-76
2022/05/27 09:25:57;;;;;;;;;;;16.20;99.90;;;;;;4316885;33;20033;-76
2022/05/27 09:28:35;;;;;;;;;;;16.30;99.90;;;;;;4303042;33;42520;-76
2022/05/27 09:31:12;;;;;;;;;;;16.30;99.90;;;;;;4315741;33;44301;-77
2022/05/27 09:33:43;;;;;;;;;;;16.30;99.90;;;;;;4302786;33;43773;-76
2022/05/27 09:36:14;;;;;;;;;;;16.30;99.90;;;;;;4316473;33;43688;-77
2022/05/27 09:39:01;;;;;;;;;;;16.30;99.90;;;;;;4315893;33;43754;-76
2022/05/27 09:41:51;;;;;;;;;;;16.40;99.90;;;;;;4302929;33;43297;-76
2022/05/27 09:44:25;;;;;;;;;;;16.40;99.90;;;;;;4303308;33;43031;-76
2022/05/27 09:47:03;;;;;;;;;;;16.40;99.90;;;;;;4302418;33;44220;-76
2022/05/27 09:49:43;;;;;;;;;;;16.40;99.90;;;;;;4316082;33;42308;-76
2022/05/27 09:52:11;;;;;;;;;;;16.40;99.90;;;;;;4315983;33;45762;-76
2022/05/27 09:54:51;;;;;;;;;;;16.30;99.90;;;;;;4302792;33;43632;-76
2022/05/27 09:57:41;;;;;;;;;;;16.30;99.90;;;;;;4302663;33;43490;-76
2022/05/27 10:00:12;;;;;;;;;;;16.40;99.90;;;;;;4301790;33;44860;-77
2022/05/27 10:02:39;;;;;;;;;;;16.40;99.90;;;;;;4315391;33;43198;-77
2022/05/27 10:05:08;;;;;;;;;;;16.40;99.90;;;;;;4315407;33;42458;-76
2022/05/27 10:07:46;;;;;;;;;;;16.40;99.90;;;;;;4303126;33;43270;-77
2022/05/27 10:10:25;;;;;;;;;;;16.40;99.90;;;;;;4302915;33;43703;-76
2022/05/27 10:12:52;;;;;;;;;;;16.40;99.90;;;;;;4315883;33;42166;-77
2022/05/27 10:15:35;;;;;;;;;;;16.40;99.90;;;;;;4315332;33;42481;-77
2022/05/27 10:18:14;;;;;;;;;;;16.40;99.90;;;;;;4303283;33;43981;-76
2022/05/27 10:20:48;;;;;;;;;;;16.40;99.90;;;;;;4315465;33;43245;-77
2022/05/27 10:23:24;;;;;;;;;;;16.50;99.90;;;;;;4315771;33;45121;-77
2022/05/27 10:25:58;;;;;;;;;;;16.40;99.90;;;;;;4315980;33;43050;-77
2022/05/27 10:28:32;;;;;;;;;;;16.50;99.90;;;;;;4316350;33;20386;-77
2022/05/27 10:31:04;;;;;;;;;;;16.50;99.90;;;;;;4315893;33;44415;-77
2022/05/27 10:33:43;;;;;;;;;;;16.50;99.90;;;;;;4302821;33;43022;-76
2022/05/27 10:36:36;;;;;;;;;;;16.50;99.90;;;;;;4302591;33;44194;-76
2022/05/27 10:39:03;;;;;;;;;;;16.50;99.90;;;;;;4302849;33;44183;-76
2022/05/27 10:41:49;;;;;;;;;;;16.50;99.90;;;;;;4315519;33;43063;-77
2022/05/27 10:44:24;;;;;;;;;;;16.50;99.90;;;;;;4316243;33;43059;-76
2022/05/27 10:46:57;;;;;;;;;;;16.50;99.90;;;;;;4318499;33;43571;-77
2022/05/27 10:49:47;;;;;;;;;;;16.50;99.90;;;;;;4305284;33;43152;-77
2022/05/27 10:52:57;;;;;;;;;;;16.50;99.90;;;;;;4318193;33;42191;-76
2022/05/27 10:55:36;;;;;;;;;;;16.50;99.90;;;;;;4247022;33;42548;-76
2022/05/27 11:04:13;;;;;;;;;;;16.60;99.90;;;;;;4289299;33;42898;-76
2022/05/27 11:06:54;;;;;;;;;;;16.60;99.90;;;;;;4288648;33;43696;-77
2022/05/27 11:09:27;;;;;;;;;;;16.60;99.90;;;;;;4289266;33;43898;-77
2022/05/27 11:11:56;;;;;;;;;;;16.60;99.90;;;;;;4289085;33;43435;-76
2022/05/27 11:17:26;;;;;;;;;;;16.70;99.90;;;;;;4289351;33;43908;-77
2022/05/27 11:20:05;;;;;;;;;;;16.70;99.90;;;;;;4288975;33;43876;-77
2022/05/27 11:22:40;;;;;;;;;;;16.70;99.90;;;;;;4288764;33;42240;-76
2022/05/27 11:25:26;;;;;;;;;;;16.70;99.90;;;;;;4289137;33;43655;-76
2022/05/27 11:28:25;;;;;;;;;;;16.70;99.90;;;;;;4288829;33;43629;-76
2022/05/27 11:30:58;;;;;;;;;;;16.70;99.90;;;;;;4289689;33;20013;-77
2022/05/27 11:33:28;;;;;;;;;;;16.70;99.90;;;;;;4287539;33;44437;-77
2022/05/27 11:36:14;;;;;;;;;;;16.70;99.90;;;;;;4288323;33;44207;-77
2022/05/27 11:39:00;;;;;;;;;;;16.70;99.90;;;;;;4288837;33;43959;-76
2022/05/27 11:41:33;;;;;;;;;;;16.70;99.90;;;;;;4288804;33;45799;-77
2022/05/27 11:44:06;;;;;;;;;;;16.80;99.90;;;;;;4287785;33;43174;-77
2022/05/27 11:46:37;;;;;;;;;;;16.80;99.90;;;;;;4288807;33;44100;-77
2022/05/27 11:49:17;;;;;;;;;;;16.80;99.90;;;;;;4287520;33;44708;-77
2022/05/27 11:51:50;;;;;;;;;;;16.90;99.90;;;;;;4287178;33;42943;-77
2022/05/27 11:54:43;;;;;;;;;;;16.90;99.90;;;;;;4287567;33;44270;-77
2022/05/27 11:57:15;;;;;;;;;;;16.80;99.90;;;;;;4288300;33;43724;-77
2022/05/27 12:00:05;;;;;;;;;;;16.90;99.90;;;;;;4288515;33;43838;-77
2022/05/27 12:02:38;;;;;;;;;;;16.90;99.90;;;;;;4295559;33;43277;-77
2022/05/27 12:05:19;;;;;;;;;;;16.90;99.90;;;;;;4302427;33;42890;-76
2022/05/27 12:08:23;;;;;;;;;;;16.90;99.90;;;;;;4301570;33;43736;-76
2022/05/27 12:11:11;;;;;;;;;;;16.90;99.90;;;;;;4243013;33;45740;-77
2022/05/27 12:14:02;;;;;;;;;;;16.90;99.90;;;;;;4299338;33;43259;-77
2022/05/27 12:16:37;;;;;;;;;;;16.90;99.90;;;;;;4302221;33;42474;-77
2022/05/27 12:19:08;;;;;;;;;;;17.00;99.90;;;;;;4301660;33;43252;-77
2022/05/27 12:21:44;;;;;;;;;;;17.00;99.90;;;;;;4302354;33;43620;-77
2022/05/27 12:24:26;;;;;;;;;;;17.00;99.90;;;;;;4302492;33;42563;-77
2022/05/27 12:27:00;;;;;;;;;;;17.00;99.90;;;;;;4302481;33;45831;-77
2022/05/27 12:29:31;;;;;;;;;;;17.00;99.90;;;;;;4302180;33;43821;-77
2022/05/27 12:32:07;;;;;;;;;;;17.10;99.90;;;;;;4303217;33;20017;-77
2022/05/27 12:34:36;;;;;;;;;;;17.10;99.90;;;;;;4301290;33;42881;-78
2022/05/27 12:37:15;;;;;;;;;;;17.10;99.90;;;;;;4302264;33;45753;-77
2022/05/27 12:39:43;;;;;;;;;;;17.10;99.90;;;;;;4302287;33;43454;-77
2022/05/27 12:42:12;;;;;;;;;;;17.20;99.90;;;;;;4302455;33;43710;-76
2022/05/27 12:44:45;;;;;;;;;;;17.10;99.90;;;;;;4301815;33;43498;-77
2022/05/27 12:47:52;;;;;;;;;;;17.20;99.90;;;;;;4300998;33;42526;-77
2022/05/27 12:50:29;;;;;;;;;;;17.20;99.80;;;;;;4242695;33;42456;-76
2022/05/27 12:53:26;;;;;;;;;;;17.20;99.80;;;;;;4297251;33;43895;-78
2022/05/27 13:01:52;;;;;;;;;;;17.30;99.60;;;;;;4305657;33;42987;-77
2022/05/27 13:04:38;;;;;;;;;;;17.30;99.50;;;;;;4316030;33;42616;-77
2022/05/27 13:07:14;;;;;;;;;;;17.40;99.50;;;;;;4302470;33;42695;-77
2022/05/27 13:09:46;;;;;;;;;;;17.40;99.30;;;;;;4303131;33;43145;-77
2022/05/27 13:12:37;;;;;;;;;;;17.40;99.40;;;;;;4303412;33;43085;-77
2022/05/27 13:15:20;;;;;;;;;;;17.40;99.00;;;;;;4307139;33;42563;-77
2022/05/27 13:17:50;;;;;;;;;;;17.40;98.90;;;;;;4316522;33;45803;-77
2022/05/27 13:20:20;;;;;;;;;;;17.40;99.00;;;;;;4315948;33;44171;-76
2022/05/27 13:23:25;;;;;;;;;;;17.50;99.00;;;;;;4316267;33;43137;-76
2022/05/27 13:26:15;;;;;;;;;;;17.50;99.10;;;;;;4244530;33;44244;-76
2022/05/27 13:29:08;;;;;;;;;;;17.50;99.00;;;;;;4301636;33;43053;-78
2022/05/27 13:31:45;;;;;;;;;;;17.50;99.00;;;;;;4315632;33;42909;-77
2022/05/27 13:34:24;;;;;;;;;;;17.50;98.70;;;;;;4303582;33;20375;-76
2022/05/27 13:37:05;;;;;;;;;;;17.50;98.80;;;;;;4315747;33;42942;-76
2022/05/27 13:39:47;;;;;;;;;;;17.60;98.40;;;;;;4315970;33;42404;-76
2022/05/27 13:42:27;;;;;;;;;;;17.60;98.30;;;;;;4316121;33;42527;-76
2022/05/27 13:45:11;;;;;;;;;;;17.60;98.10;;;;;;4303493;33;43486;-76
2022/05/27 13:48:02;;;;;;;;;;;17.60;98.00;;;;;;4303478;33;43635;-77
2022/05/27 13:50:38;;;;;;;;;;;17.70;98.20;;;;;;4315506;33;43490;-77
2022/05/27 13:53:22;;;;;;;;;;;17.70;97.80;;;;;;4316187;33;42433;-77
2022/05/27 13:56:01;;;;;;;;;;;17.70;97.90;;;;;;4315777;33;43494;-77
2022/05/27 13:58:33;;;;;;;;;;;17.70;97.50;;;;;;4302988;33;44242;-77
2022/05/27 14:01:08;;;;;;;;;;;17.70;97.70;;;;;;4316227;33;44979;-77
2022/05/27 14:04:02;;;;;;;;;;;17.70;97.60;;;;;;4315656;33;42835;-76
2022/05/27 14:06:42;;;;;;;;;;;17.70;97.20;;;;;;4308612;33;20018;-76
2022/05/27 14:09:22;;;;;;;;;;;17.70;97.40;;;;;;4302677;33;44171;-76
2022/05/27 14:11:55;;;;;;;;;;;17.80;97.50;;;;;;4315958;33;43798;-76
2022/05/27 14:14:28;;;;;;;;;;;17.80;97.50;;;;;;4315792;33;42051;-77
2022/05/27 14:17:02;;;;;;;;;;;17.80;97.50;;;;;;4302552;33;44018;-76
2022/05/27 14:19:30;;;;;;;;;;;17.80;97.60;;;;;;4317903;33;43031;-77
2022/05/27 14:25:30;;;;;;;;;;;17.90;97.70;;;;;;4318987;33;43042;-76
2022/05/27 14:28:01;;;;;;;;;;;17.90;97.20;;;;;;4318231;33;43579;-76
2022/05/27 14:30:34;;;;;;;;;;;17.90;97.00;;;;;;4305996;33;43036;-76
2022/05/27 14:33:06;;;;;;;;;;;17.90;97.20;;;;;;4318710;33;43707;-77
2022/05/27 14:35:38;;;;;;;;;;;17.90;97.10;;;;;;4318529;33;42144;-77
2022/05/27 14:38:21;;;;;;;;;;;17.90;97.10;;;;;;4319606;33;20002;-76
2022/05/27 14:40:57;;;;;;;;;;;17.90;97.30;;;;;;4304906;33;42954;-76
2022/05/27 14:43:34;;;;;;;;;;;17.90;96.60;;;;;;4318186;33;43662;-77
2022/05/27 14:46:11;;;;;;;;;;;17.90;97.00;;;;;;4305586;33;43036;-77
2022/05/27 14:48:42;;;;;;;;;;;18.00;96.60;;;;;;4318425;33;43915;-77
2022/05/27 14:51:24;;;;;;;;;;;18.00;96.90;;;;;;4318002;33;43230;-77
2022/05/27 14:53:52;;;;;;;;;;;18.00;97.10;;;;;;4317865;33;44033;-77
2022/05/27 14:56:25;;;;;;;;;;;18.00;96.80;;;;;;4318418;33;44207;-77
2022/05/27 14:58:55;;;;;;;;;;;18.00;96.70;;;;;;4318324;33;43050;-76
2022/05/27 15:01:31;;;;;;;;;;;18.00;96.80;;;;;;4304961;33;43469;-76
2022/05/27 15:04:14;;;;;;;;;;;18.00;96.80;;;;;;4304668;33;42851;-77
2022/05/27 15:06:42;;;;;;;;;;;18.00;96.60;;;;;;4318313;33;43741;-76
2022/05/27 15:09:20;;;;;;;;;;;18.00;96.60;;;;;;4305194;33;20017;-76
2022/05/27 15:12:07;;;;;;;;;;;18.00;97.00;;;;;;4317997;33;43015;-76
2022/05/27 15:14:42;;;;;;;;;;;18.10;96.90;;;;;;4317915;33;43700;-76
2022/05/27 15:17:29;;;;;;;;;;;18.10;96.30;;;;;;4317897;33;42450;-77
2022/05/27 15:20:04;;;;;;;;;;;18.00;96.40;;;;;;4317848;33;43012;-77
2022/05/27 15:22:54;;;;;;;;;;;18.10;96.00;;;;;;4317472;33;42642;-77
2022/05/27 15:25:23;;;;;;;;;;;18.10;94.50;;;;;;4304889;33;43098;-77
2022/05/27 15:33:48;;;;;;;;;;;18.10;96.00;;;;;;4317935;33;44249;-76
2022/05/27 15:36:20;;;;;;;;;;;18.10;96.00;;;;;;4317698;33;43520;-76
2022/05/27 15:38:52;;;;;;;;;;;18.10;95.90;;;;;;4317862;33;43101;-76
2022/05/27 15:41:25;;;;;;;;;;;18.10;96.20;;;;;;4317370;33;42462;-77
2022/05/27 15:43:58;;;;;;;;;;;18.10;95.70;;;;;;4317655;33;43686;-76
2022/05/27 15:46:33;;;;;;;;;;;18.10;95.10;;;;;;4317725;33;43530;-77
2022/05/27 15:49:03;;;;;;;;;;;18.20;95.60;;;;;;4304775;33;43833;-76
2022/05/27 15:51:39;;;;;;;;;;;18.10;95.90;;;;;;4304268;33;43974;-76
2022/05/27 15:54:12;;;;;;;;;;;18.10;95.60;;;;;;4317606;33;43095;-76
2022/05/27 15:56:42;;;;;;;;;;;18.10;93.70;;;;;;4304152;33;43666;-76
2022/05/27 15:59:17;;;;;;;;;;;18.10;94.20;;;;;;4304385;33;44961;-76
2022/05/27 16:01:57;;;;;;;;;;;18.00;93.80;;;;;;4317065;33;43479;-76
2022/05/27 16:04:32;;;;;;;;;;;18.10;95.30;;;;;;4304380;33;43618;-76
2022/05/27 16:07:05;;;;;;;;;;;18.10;95.60;;;;;;4317054;33;44014;-77
2022/05/27 16:09:33;;;;;;;;;;;18.10;95.20;;;;;;4304102;33;44193;-76
2022/05/27 16:12:00;;;;;;;;;;;18.10;95.10;;;;;;4304031;33;43498;-77
2022/05/27 16:14:41;;;;;;;;;;;18.10;95.30;;;;;;4317077;33;42502;-76